Memorial Field
KHOT : now visible

Airfield :











YOU CAN JOIN US ON...

 
LOGIN :

Register | Disclaimer

   EN    FR    IT 

 









Legend :    VFR   Marginal VFR   IFR   Intensive IFR   Very Intensive IFR
Visi :
Ceiling :
>= 8 km
>= 3000ft
5 to 8 km
1000 to 3000 ft
1500m to 5 km
500 to 1000 ft
800 to 1500m
200 to 500 ft
< 800m
< 200 ft
Symbols :   Thunderstorms  Fog  Heavy snow  Heavy precipitations  Wind > 20 kt






- Airport Elevation : 540 ft
- IATA code : HOT


KHOT - Memorial Field

CURRENT METAR :
  • 231353Z AUTO 00000KT 10SM OVC060 08/01 A3017 RMK AO2 SLP217 T00830006

EXPIRED METARs :
  • 231253Z AUTO 00000KT 10SM OVC060 08/01 A3016 RMK AO2 SLP211 T00830006
  • 231153Z AUTO 00000KT 10SM OVC065 08/01 A3017 RMK AO2 SLP216 T00780011 10083 20078 55004

TAF KHOT
Valid from the 23 at 12:00 until the 24 at 12:00 UTC


231120Z 2312/2412 17006KT P6SM VCSH SCT025 OVC070
TEMPO 2318/2322 -RA BKN025 OVC050
FM232200 17006KT P6SM VCSH BKN025 OVC050
TEMPO 2322/2402 5SM -SHRA BR BKN015 OVC025
FM240200 14005KT 5SM -SHRA BR VCTS BKN007 OVC015CB WS020/20045KT
PROB30 2404/2410 2SM -TSRA BR BKN005 OVC012CB



MET'MAP, your aeronautical weather chart ! - Copyright ORBIFLY December 2007 - Disclaimer

ORBIFLY MET'MAP TEAM :

Programming & Development : Alexandra Zaïnal
Concept & original design : Baudouin d'Aumeries
Assistance for programming : Marc-Olivier Méhu
Technical & hardware support : Manuel Goepfert

Contact : metmap@orbifly.com




SOURCES & CREDITS :

   NOAA       Earth
Advisory